sensor_id;sensor_type;location;lat;lon;timestamp;P1;durP1;ratioP1;P2;durP2;ratioP2
5951;SDS011;3001;42.622;23.194;2022-12-26T00:02:21;0.60;;;0.23;;
5951;SDS011;3001;42.622;23.194;2022-12-26T00:04:48;0.17;;;0.17;;
5951;SDS011;3001;42.622;23.194;2022-12-26T00:07:16;1.47;;;0.23;;
5951;SDS011;3001;42.622;23.194;2022-12-26T00:09:43;0.63;;;0.30;;
5951;SDS011;3001;42.622;23.194;2022-12-26T00:12:09;0.40;;;0.30;;
5951;SDS011;3001;42.622;23.194;2022-12-26T00:14:36;0.50;;;0.50;;
5951;SDS011;3001;42.622;23.194;2022-12-26T00:17:04;0.33;;;0.10;;
5951;SDS011;3001;42.622;23.194;2022-12-26T00:19:31;0.10;;;0.10;;
5951;SDS011;3001;42.622;23.194;2022-12-26T00:21:57;1.23;;;0.20;;
5951;SDS011;3001;42.622;23.194;2022-12-26T00:24:26;0.10;;;0.10;;
5951;SDS011;3001;42.622;23.194;2022-12-26T00:26:52;1.10;;;0.27;;
5951;SDS011;3001;42.622;23.194;2022-12-26T00:29:19;0.17;;;0.10;;
5951;SDS011;3001;42.622;23.194;2022-12-26T00:31:46;0.10;;;0.10;;
5951;SDS011;3001;42.622;23.194;2022-12-26T00:34:14;1.30;;;0.30;;
5951;SDS011;3001;42.622;23.194;2022-12-26T00:36:40;0.20;;;0.10;;
5951;SDS011;3001;42.622;23.194;2022-12-26T00:39:07;0.10;;;0.10;;
5951;SDS011;3001;42.622;23.194;2022-12-26T00:41:35;1.60;;;0.23;;
5951;SDS011;3001;42.622;23.194;2022-12-26T00:44:02;0.30;;;0.20;;
5951;SDS011;3001;42.622;23.194;2022-12-26T00:46:29;0.10;;;0.10;;
5951;SDS011;3001;42.622;23.194;2022-12-26T00:48:56;0.20;;;0.20;;
5951;SDS011;3001;42.622;23.194;2022-12-26T00:51:23;0.40;;;0.37;;
5951;SDS011;3001;42.622;23.194;2022-12-26T00:53:49;1.27;;;0.17;;
5951;SDS011;3001;42.622;23.194;2022-12-26T00:56:16;0.07;;;0.07;;
5951;SDS011;3001;42.622;23.194;2022-12-26T00:58:44;0.63;;;0.20;;
5951;SDS011;3001;42.622;23.194;2022-12-26T01:01:13;1.17;;;0.30;;
5951;SDS011;3001;42.622;23.194;2022-12-26T01:03:41;0.43;;;0.20;;
5951;SDS011;3001;42.622;23.194;2022-12-26T01:06:09;2.47;;;0.40;;
5951;SDS011;3001;42.622;23.194;2022-12-26T01:08:36;0.17;;;0.17;;
5951;SDS011;3001;42.622;23.194;2022-12-26T01:11:03;0.40;;;0.13;;
5951;SDS011;3001;42.622;23.194;2022-12-26T01:13:32;0.20;;;0.20;;
5951;SDS011;3001;42.622;23.194;2022-12-26T01:16:01;0.10;;;0.10;;
5951;SDS011;3001;42.622;23.194;2022-12-26T01:18:28;0.20;;;0.20;;
5951;SDS011;3001;42.622;23.194;2022-12-26T01:20:58;0.47;;;0.20;;
5951;SDS011;3001;42.622;23.194;2022-12-26T01:23:26;0.83;;;0.10;;
5951;SDS011;3001;42.622;23.194;2022-12-26T01:25:53;0.87;;;0.20;;
5951;SDS011;3001;42.622;23.194;2022-12-26T01:28:20;0.10;;;0.10;;
5951;SDS011;3001;42.622;23.194;2022-12-26T01:30:46;0.60;;;0.23;;
5951;SDS011;3001;42.622;23.194;2022-12-26T01:33:14;0.30;;;0.30;;
5951;SDS011;3001;42.622;23.194;2022-12-26T01:35:48;1.03;;;0.20;;
5951;SDS011;3001;42.622;23.194;2022-12-26T01:38:16;0.27;;;0.20;;
5951;SDS011;3001;42.622;23.194;2022-12-26T01:40:43;0.17;;;0.10;;
5951;SDS011;3001;42.622;23.194;2022-12-26T01:43:10;0.30;;;0.30;;
5951;SDS011;3001;42.622;23.194;2022-12-26T01:45:38;0.20;;;0.20;;
5951;SDS011;3001;42.622;23.194;2022-12-26T01:48:11;0.43;;;0.23;;
5951;SDS011;3001;42.622;23.194;2022-12-26T01:50:43;0.10;;;0.10;;
5951;SDS011;3001;42.622;23.194;2022-12-26T01:53:17;0.10;;;0.10;;
5951;SDS011;3001;42.622;23.194;2022-12-26T01:55:47;0.93;;;0.63;;
5951;SDS011;3001;42.622;23.194;2022-12-26T01:58:18;0.20;;;0.10;;
5951;SDS011;3001;42.622;23.194;2022-12-26T02:00:49;0.10;;;0.10;;
5951;SDS011;3001;42.622;23.194;2022-12-26T02:03:17;0.10;;;0.10;;
5951;SDS011;3001;42.622;23.194;2022-12-26T02:06:02;0.20;;;0.20;;
5951;SDS011;3001;42.622;23.194;2022-12-26T02:08:30;0.10;;;0.10;;
5951;SDS011;3001;42.622;23.194;2022-12-26T02:11:01;0.20;;;0.20;;
5951;SDS011;3001;42.622;23.194;2022-12-26T02:13:33;0.20;;;0.20;;
5951;SDS011;3001;42.622;23.194;2022-12-26T02:16:01;0.97;;;0.20;;
5951;SDS011;3001;42.622;23.194;2022-12-26T02:18:29;0.20;;;0.20;;
5951;SDS011;3001;42.622;23.194;2022-12-26T02:20:58;1.03;;;0.20;;
5951;SDS011;3001;42.622;23.194;2022-12-26T02:23:43;1.80;;;0.20;;
5951;SDS011;3001;42.622;23.194;2022-12-26T02:32:57;0.63;;;0.40;;
5951;SDS011;3001;42.622;23.194;2022-12-26T02:35:54;0.20;;;0.20;;
5951;SDS011;3001;42.622;23.194;2022-12-26T02:38:49;0.20;;;0.20;;
5951;SDS011;3001;42.622;23.194;2022-12-26T02:41:25;0.40;;;0.17;;
5951;SDS011;3001;42.622;23.194;2022-12-26T02:44:01;0.20;;;0.20;;
5951;SDS011;3001;42.622;23.194;2022-12-26T02:46:51;1.70;;;0.20;;
5951;SDS011;3001;42.622;23.194;2022-12-26T02:49:33;0.70;;;0.40;;
5951;SDS011;3001;42.622;23.194;2022-12-26T02:52:28;0.30;;;0.30;;
5951;SDS011;3001;42.622;23.194;2022-12-26T02:55:19;1.70;;;0.30;;
5951;SDS011;3001;42.622;23.194;2022-12-26T02:58:11;0.20;;;0.20;;
5951;SDS011;3001;42.622;23.194;2022-12-26T03:01:02;0.33;;;0.30;;
5951;SDS011;3001;42.622;23.194;2022-12-26T03:03:50;0.20;;;0.20;;
5951;SDS011;3001;42.622;23.194;2022-12-26T03:06:50;0.20;;;0.20;;
5951;SDS011;3001;42.622;23.194;2022-12-26T03:09:37;0.10;;;0.10;;
5951;SDS011;3001;42.622;23.194;2022-12-26T03:12:27;0.37;;;0.37;;
5951;SDS011;3001;42.622;23.194;2022-12-26T03:15:18;0.40;;;0.40;;
5951;SDS011;3001;42.622;23.194;2022-12-26T03:17:48;1.20;;;0.20;;
5951;SDS011;3001;42.622;23.194;2022-12-26T03:20:17;1.20;;;0.20;;
5951;SDS011;3001;42.622;23.194;2022-12-26T03:22:50;0.40;;;0.20;;
5951;SDS011;3001;42.622;23.194;2022-12-26T03:25:26;0.83;;;0.30;;
5951;SDS011;3001;42.622;23.194;2022-12-26T03:28:19;0.20;;;0.10;;
5951;SDS011;3001;42.622;23.194;2022-12-26T03:30:46;0.97;;;0.20;;
5951;SDS011;3001;42.622;23.194;2022-12-26T03:33:15;0.20;;;0.20;;
5951;SDS011;3001;42.622;23.194;2022-12-26T03:36:00;1.20;;;0.30;;
5951;SDS011;3001;42.622;23.194;2022-12-26T03:38:31;1.13;;;0.20;;
5951;SDS011;3001;42.622;23.194;2022-12-26T03:41:05;0.10;;;0.10;;
5951;SDS011;3001;42.622;23.194;2022-12-26T03:43:58;2.10;;;0.03;;
5951;SDS011;3001;42.622;23.194;2022-12-26T03:46:53;0.10;;;0.10;;
5951;SDS011;3001;42.622;23.194;2022-12-26T03:49:50;0.10;;;0.10;;
5951;SDS011;3001;42.622;23.194;2022-12-26T03:52:38;0.40;;;0.30;;
5951;SDS011;3001;42.622;23.194;2022-12-26T03:55:33;0.00;;;0.00;;
5951;SDS011;3001;42.622;23.194;2022-12-26T03:58:25;0.13;;;0.13;;
5951;SDS011;3001;42.622;23.194;2022-12-26T04:01:15;0.10;;;0.10;;
5951;SDS011;3001;42.622;23.194;2022-12-26T04:04:02;0.20;;;0.17;;
5951;SDS011;3001;42.622;23.194;2022-12-26T04:06:52;0.10;;;0.10;;
5951;SDS011;3001;42.622;23.194;2022-12-26T04:09:43;0.10;;;0.10;;
5951;SDS011;3001;42.622;23.194;2022-12-26T04:12:32;0.10;;;0.10;;
5951;SDS011;3001;42.622;23.194;2022-12-26T04:15:20;0.40;;;0.20;;
5951;SDS011;3001;42.622;23.194;2022-12-26T04:18:09;0.50;;;0.50;;
5951;SDS011;3001;42.622;23.194;2022-12-26T04:21:05;0.20;;;0.20;;
5951;SDS011;3001;42.622;23.194;2022-12-26T04:23:59;0.53;;;0.43;;
5951;SDS011;3001;42.622;23.194;2022-12-26T04:26:50;1.53;;;1.07;;
5951;SDS011;3001;42.622;23.194;2022-12-26T04:29:38;0.77;;;0.77;;
5951;SDS011;3001;42.622;23.194;2022-12-26T04:32:25;3.90;;;2.17;;
5951;SDS011;3001;42.622;23.194;2022-12-26T04:35:17;1.43;;;1.20;;
5951;SDS011;3001;42.622;23.194;2022-12-26T04:38:06;0.20;;;0.20;;
5951;SDS011;3001;42.622;23.194;2022-12-26T04:40:53;0.40;;;0.40;;
5951;SDS011;3001;42.622;23.194;2022-12-26T04:43:40;0.33;;;0.27;;
5951;SDS011;3001;42.622;23.194;2022-12-26T04:46:27;0.30;;;0.20;;
5951;SDS011;3001;42.622;23.194;2022-12-26T04:48:56;1.13;;;0.40;;
5951;SDS011;3001;42.622;23.194;2022-12-26T04:51:42;0.57;;;0.40;;
5951;SDS011;3001;42.622;23.194;2022-12-26T04:54:09;0.50;;;0.40;;
5951;SDS011;3001;42.622;23.194;2022-12-26T04:56:35;0.43;;;0.30;;
5951;SDS011;3001;42.622;23.194;2022-12-26T04:59:02;0.30;;;0.30;;
5951;SDS011;3001;42.622;23.194;2022-12-26T05:01:30;0.40;;;0.40;;
5951;SDS011;3001;42.622;23.194;2022-12-26T05:04:14;0.40;;;0.40;;
5951;SDS011;3001;42.622;23.194;2022-12-26T05:07:00;0.40;;;0.40;;
5951;SDS011;3001;42.622;23.194;2022-12-26T05:09:47;0.37;;;0.37;;
5951;SDS011;3001;42.622;23.194;2022-12-26T05:12:15;0.60;;;0.60;;
5951;SDS011;3001;42.622;23.194;2022-12-26T05:14:42;0.67;;;0.67;;
5951;SDS011;3001;42.622;23.194;2022-12-26T05:17:10;0.40;;;0.40;;
5951;SDS011;3001;42.622;23.194;2022-12-26T05:19:55;0.67;;;0.60;;
5951;SDS011;3001;42.622;23.194;2022-12-26T05:22:40;0.53;;;0.53;;
5951;SDS011;3001;42.622;23.194;2022-12-26T05:25:27;0.70;;;0.50;;
5951;SDS011;3001;42.622;23.194;2022-12-26T05:28:14;0.50;;;0.50;;
5951;SDS011;3001;42.622;23.194;2022-12-26T05:31:00;0.70;;;0.57;;
5951;SDS011;3001;42.622;23.194;2022-12-26T05:33:28;0.90;;;0.90;;
5951;SDS011;3001;42.622;23.194;2022-12-26T05:36:13;0.50;;;0.50;;
5951;SDS011;3001;42.622;23.194;2022-12-26T05:38:41;1.43;;;0.60;;
5951;SDS011;3001;42.622;23.194;2022-12-26T05:41:08;1.07;;;0.60;;
5951;SDS011;3001;42.622;23.194;2022-12-26T05:43:35;1.20;;;1.10;;
5951;SDS011;3001;42.622;23.194;2022-12-26T05:46:01;0.57;;;0.57;;
5951;SDS011;3001;42.622;23.194;2022-12-26T05:48:30;0.70;;;0.70;;
5951;SDS011;3001;42.622;23.194;2022-12-26T05:50:57;2.13;;;0.90;;
5951;SDS011;3001;42.622;23.194;2022-12-26T05:53:24;0.47;;;0.47;;
5951;SDS011;3001;42.622;23.194;2022-12-26T05:55:51;1.03;;;0.80;;
5951;SDS011;3001;42.622;23.194;2022-12-26T05:58:18;2.10;;;0.60;;
5951;SDS011;3001;42.622;23.194;2022-12-26T06:00:45;0.57;;;0.57;;
5951;SDS011;3001;42.622;23.194;2022-12-26T06:03:12;0.40;;;0.40;;
5951;SDS011;3001;42.622;23.194;2022-12-26T06:05:40;0.53;;;0.47;;
5951;SDS011;3001;42.622;23.194;2022-12-26T06:08:06;3.80;;;0.63;;
5951;SDS011;3001;42.622;23.194;2022-12-26T06:10:33;0.60;;;0.60;;
5951;SDS011;3001;42.622;23.194;2022-12-26T06:13:00;2.93;;;0.60;;
5951;SDS011;3001;42.622;23.194;2022-12-26T06:15:27;0.47;;;0.47;;
5951;SDS011;3001;42.622;23.194;2022-12-26T06:17:53;0.50;;;0.50;;
5951;SDS011;3001;42.622;23.194;2022-12-26T06:20:20;0.50;;;0.50;;
5951;SDS011;3001;42.622;23.194;2022-12-26T06:22:48;0.87;;;0.80;;
5951;SDS011;3001;42.622;23.194;2022-12-26T06:25:15;0.93;;;0.40;;
5951;SDS011;3001;42.622;23.194;2022-12-26T06:27:42;0.30;;;0.30;;
5951;SDS011;3001;42.622;23.194;2022-12-26T06:30:09;0.40;;;0.40;;
5951;SDS011;3001;42.622;23.194;2022-12-26T06:32:36;0.50;;;0.50;;
5951;SDS011;3001;42.622;23.194;2022-12-26T06:35:03;0.40;;;0.40;;
5951;SDS011;3001;42.622;23.194;2022-12-26T06:37:31;1.10;;;0.60;;
5951;SDS011;3001;42.622;23.194;2022-12-26T06:39:59;0.70;;;0.70;;
5951;SDS011;3001;42.622;23.194;2022-12-26T06:42:27;2.40;;;0.47;;
5951;SDS011;3001;42.622;23.194;2022-12-26T06:44:54;0.90;;;0.90;;
5951;SDS011;3001;42.622;23.194;2022-12-26T06:47:20;0.60;;;0.40;;
5951;SDS011;3001;42.622;23.194;2022-12-26T06:49:47;0.40;;;0.40;;
5951;SDS011;3001;42.622;23.194;2022-12-26T06:52:14;1.70;;;0.63;;
5951;SDS011;3001;42.622;23.194;2022-12-26T06:54:41;0.60;;;0.60;;
5951;SDS011;3001;42.622;23.194;2022-12-26T06:57:09;1.57;;;0.40;;
5951;SDS011;3001;42.622;23.194;2022-12-26T06:59:35;0.60;;;0.40;;
5951;SDS011;3001;42.622;23.194;2022-12-26T07:02:02;1.10;;;0.60;;
5951;SDS011;3001;42.622;23.194;2022-12-26T07:04:29;0.93;;;0.50;;
5951;SDS011;3001;42.622;23.194;2022-12-26T07:06:55;0.60;;;0.60;;
5951;SDS011;3001;42.622;23.194;2022-12-26T07:09:22;0.60;;;0.43;;
5951;SDS011;3001;42.622;23.194;2022-12-26T07:11:49;0.50;;;0.50;;
5951;SDS011;3001;42.622;23.194;2022-12-26T07:14:17;0.40;;;0.40;;
5951;SDS011;3001;42.622;23.194;2022-12-26T07:16:44;0.93;;;0.90;;
5951;SDS011;3001;42.622;23.194;2022-12-26T07:19:11;0.60;;;0.60;;
5951;SDS011;3001;42.622;23.194;2022-12-26T07:21:39;1.43;;;0.90;;
5951;SDS011;3001;42.622;23.194;2022-12-26T07:24:06;0.90;;;0.90;;
5951;SDS011;3001;42.622;23.194;2022-12-26T07:26:38;0.70;;;0.70;;
5951;SDS011;3001;42.622;23.194;2022-12-26T07:29:05;0.80;;;0.80;;
5951;SDS011;3001;42.622;23.194;2022-12-26T07:31:33;0.70;;;0.70;;
5951;SDS011;3001;42.622;23.194;2022-12-26T07:34:00;1.07;;;0.80;;
5951;SDS011;3001;42.622;23.194;2022-12-26T07:36:26;1.10;;;1.00;;
5951;SDS011;3001;42.622;23.194;2022-12-26T07:38:53;0.97;;;0.70;;
5951;SDS011;3001;42.622;23.194;2022-12-26T07:41:20;0.70;;;0.70;;
5951;SDS011;3001;42.622;23.194;2022-12-26T07:44:05;2.17;;;0.87;;
5951;SDS011;3001;42.622;23.194;2022-12-26T07:46:33;1.37;;;0.90;;
5951;SDS011;3001;42.622;23.194;2022-12-26T07:49:00;3.87;;;1.03;;
5951;SDS011;3001;42.622;23.194;2022-12-26T07:51:27;0.90;;;0.90;;
5951;SDS011;3001;42.622;23.194;2022-12-26T07:53:54;2.40;;;0.77;;
5951;SDS011;3001;42.622;23.194;2022-12-26T07:56:21;0.70;;;0.70;;
5951;SDS011;3001;42.622;23.194;2022-12-26T07:58:47;1.70;;;0.80;;
5951;SDS011;3001;42.622;23.194;2022-12-26T08:01:14;0.70;;;0.70;;
5951;SDS011;3001;42.622;23.194;2022-12-26T08:03:42;0.83;;;0.80;;
5951;SDS011;3001;42.622;23.194;2022-12-26T08:06:09;0.47;;;0.47;;
5951;SDS011;3001;42.622;23.194;2022-12-26T08:08:36;1.37;;;0.80;;
5951;SDS011;3001;42.622;23.194;2022-12-26T08:11:04;1.00;;;0.90;;
5951;SDS011;3001;42.622;23.194;2022-12-26T08:13:32;1.10;;;0.83;;
5951;SDS011;3001;42.622;23.194;2022-12-26T08:16:02;0.47;;;0.47;;
5951;SDS011;3001;42.622;23.194;2022-12-26T08:18:30;0.60;;;0.60;;
5951;SDS011;3001;42.622;23.194;2022-12-26T08:20:58;5.97;;;5.07;;
5951;SDS011;3001;42.622;23.194;2022-12-26T08:23:25;14.70;;;10.70;;
5951;SDS011;3001;42.622;23.194;2022-12-26T08:25:52;5.83;;;5.23;;
5951;SDS011;3001;42.622;23.194;2022-12-26T08:28:18;8.77;;;6.17;;
5951;SDS011;3001;42.622;23.194;2022-12-26T08:30:45;13.43;;;10.20;;
5951;SDS011;3001;42.622;23.194;2022-12-26T08:33:13;9.20;;;8.30;;
5951;SDS011;3001;42.622;23.194;2022-12-26T08:35:40;4.87;;;4.47;;
5951;SDS011;3001;42.622;23.194;2022-12-26T08:38:09;3.73;;;3.43;;
5951;SDS011;3001;42.622;23.194;2022-12-26T08:40:36;3.70;;;3.40;;
5951;SDS011;3001;42.622;23.194;2022-12-26T08:43:03;2.97;;;2.67;;
5951;SDS011;3001;42.622;23.194;2022-12-26T08:45:31;3.00;;;2.80;;
5951;SDS011;3001;42.622;23.194;2022-12-26T08:47:58;4.97;;;2.80;;
5951;SDS011;3001;42.622;23.194;2022-12-26T08:50:27;5.40;;;5.00;;
5951;SDS011;3001;42.622;23.194;2022-12-26T08:52:53;5.40;;;4.90;;
5951;SDS011;3001;42.622;23.194;2022-12-26T08:55:21;5.40;;;4.90;;
5951;SDS011;3001;42.622;23.194;2022-12-26T08:57:48;6.00;;;5.50;;
5951;SDS011;3001;42.622;23.194;2022-12-26T09:00:15;9.50;;;7.10;;
5951;SDS011;3001;42.622;23.194;2022-12-26T09:02:42;7.00;;;6.30;;
5951;SDS011;3001;42.622;23.194;2022-12-26T09:05:09;8.17;;;6.60;;
5951;SDS011;3001;42.622;23.194;2022-12-26T09:07:35;9.93;;;6.27;;
5951;SDS011;3001;42.622;23.194;2022-12-26T09:10:02;9.10;;;5.23;;
5951;SDS011;3001;42.622;23.194;2022-12-26T09:12:31;9.00;;;6.90;;
5951;SDS011;3001;42.622;23.194;2022-12-26T09:14:58;8.17;;;7.40;;
5951;SDS011;3001;42.622;23.194;2022-12-26T09:17:24;10.67;;;8.00;;
5951;SDS011;3001;42.622;23.194;2022-12-26T09:19:52;7.83;;;7.13;;
5951;SDS011;3001;42.622;23.194;2022-12-26T09:22:18;14.87;;;8.83;;
5951;SDS011;3001;42.622;23.194;2022-12-26T09:25:02;11.67;;;9.57;;
5951;SDS011;3001;42.622;23.194;2022-12-26T09:27:29;9.10;;;7.47;;
5951;SDS011;3001;42.622;23.194;2022-12-26T09:29:57;12.03;;;8.00;;
5951;SDS011;3001;42.622;23.194;2022-12-26T09:32:24;13.93;;;8.07;;
5951;SDS011;3001;42.622;23.194;2022-12-26T09:34:51;13.43;;;8.63;;
5951;SDS011;3001;42.622;23.194;2022-12-26T09:37:18;8.50;;;7.57;;
5951;SDS011;3001;42.622;23.194;2022-12-26T09:39:45;10.47;;;8.00;;
5951;SDS011;3001;42.622;23.194;2022-12-26T09:42:14;9.70;;;7.40;;
5951;SDS011;3001;42.622;23.194;2022-12-26T09:44:50;14.47;;;9.00;;
5951;SDS011;3001;42.622;23.194;2022-12-26T09:47:34;10.83;;;8.77;;
5951;SDS011;3001;42.622;23.194;2022-12-26T09:50:08;14.03;;;9.00;;
5951;SDS011;3001;42.622;23.194;2022-12-26T09:52:39;12.13;;;9.83;;
5951;SDS011;3001;42.622;23.194;2022-12-26T09:55:16;10.60;;;9.40;;
5951;SDS011;3001;42.622;23.194;2022-12-26T09:57:50;15.97;;;10.07;;
5951;SDS011;3001;42.622;23.194;2022-12-26T10:00:21;13.83;;;9.67;;
5951;SDS011;3001;42.622;23.194;2022-12-26T10:02:53;13.77;;;9.10;;
5951;SDS011;3001;42.622;23.194;2022-12-26T10:05:24;12.07;;;8.40;;
5951;SDS011;3001;42.622;23.194;2022-12-26T10:07:56;20.73;;;10.93;;
5951;SDS011;3001;42.622;23.194;2022-12-26T10:10:27;16.00;;;10.63;;
5951;SDS011;3001;42.622;23.194;2022-12-26T10:13:04;19.43;;;9.27;;
5951;SDS011;3001;42.622;23.194;2022-12-26T10:15:40;16.03;;;11.33;;
5951;SDS011;3001;42.622;23.194;2022-12-26T10:18:25;17.57;;;11.10;;
5951;SDS011;3001;42.622;23.194;2022-12-26T10:21:04;19.33;;;12.27;;
5951;SDS011;3001;42.622;23.194;2022-12-26T10:23:41;22.20;;;11.73;;
5951;SDS011;3001;42.622;23.194;2022-12-26T10:26:12;36.87;;;18.50;;
5951;SDS011;3001;42.622;23.194;2022-12-26T10:28:44;22.53;;;12.70;;
5951;SDS011;3001;42.622;23.194;2022-12-26T10:31:18;22.27;;;12.37;;
5951;SDS011;3001;42.622;23.194;2022-12-26T10:34:05;23.20;;;16.63;;
5951;SDS011;3001;42.622;23.194;2022-12-26T10:36:39;42.60;;;26.03;;
5951;SDS011;3001;42.622;23.194;2022-12-26T10:39:12;11.00;;;7.60;;
5951;SDS011;3001;42.622;23.194;2022-12-26T10:41:46;144.37;;;65.03;;
5951;SDS011;3001;42.622;23.194;2022-12-26T10:44:15;47.83;;;22.23;;
5951;SDS011;3001;42.622;23.194;2022-12-26T10:46:48;75.27;;;27.83;;
5951;SDS011;3001;42.622;23.194;2022-12-26T10:49:23;41.97;;;25.03;;
5951;SDS011;3001;42.622;23.194;2022-12-26T10:51:53;39.67;;;22.27;;
5951;SDS011;3001;42.622;23.194;2022-12-26T10:54:22;51.17;;;26.60;;
5951;SDS011;3001;42.622;23.194;2022-12-26T10:56:49;31.27;;;16.60;;
5951;SDS011;3001;42.622;23.194;2022-12-26T10:59:17;23.13;;;14.03;;
5951;SDS011;3001;42.622;23.194;2022-12-26T11:01:46;32.63;;;14.33;;
5951;SDS011;3001;42.622;23.194;2022-12-26T11:04:14;8.77;;;7.03;;
5951;SDS011;3001;42.622;23.194;2022-12-26T11:06:44;28.67;;;17.00;;
5951;SDS011;3001;42.622;23.194;2022-12-26T11:09:24;47.03;;;25.50;;
5951;SDS011;3001;42.622;23.194;2022-12-26T11:11:59;34.70;;;23.57;;
5951;SDS011;3001;42.622;23.194;2022-12-26T11:14:31;37.67;;;18.17;;
5951;SDS011;3001;42.622;23.194;2022-12-26T11:17:01;48.07;;;26.87;;
5951;SDS011;3001;42.622;23.194;2022-12-26T11:19:32;13.73;;;8.77;;
5951;SDS011;3001;42.622;23.194;2022-12-26T11:22:19;10.60;;;7.83;;
5951;SDS011;3001;42.622;23.194;2022-12-26T11:27:38;22.77;;;8.63;;
5951;SDS011;3001;42.622;23.194;2022-12-26T11:30:18;24.43;;;10.83;;
5951;SDS011;3001;42.622;23.194;2022-12-26T11:32:48;39.00;;;12.93;;
5951;SDS011;3001;42.622;23.194;2022-12-26T11:35:28;5.60;;;4.30;;
5951;SDS011;3001;42.622;23.194;2022-12-26T11:38:02;21.23;;;9.17;;
5951;SDS011;3001;42.622;23.194;2022-12-26T11:40:32;18.73;;;8.23;;
5951;SDS011;3001;42.622;23.194;2022-12-26T11:43:02;17.87;;;9.10;;
5951;SDS011;3001;42.622;23.194;2022-12-26T11:45:35;9.00;;;5.00;;
5951;SDS011;3001;42.622;23.194;2022-12-26T11:48:07;8.77;;;6.13;;
5951;SDS011;3001;42.622;23.194;2022-12-26T11:50:45;4.77;;;3.10;;
5951;SDS011;3001;42.622;23.194;2022-12-26T11:53:15;3.90;;;2.90;;
5951;SDS011;3001;42.622;23.194;2022-12-26T11:55:44;5.43;;;3.73;;
5951;SDS011;3001;42.622;23.194;2022-12-26T11:58:15;6.03;;;3.97;;
5951;SDS011;3001;42.622;23.194;2022-12-26T12:03:38;12.77;;;8.43;;
5951;SDS011;3001;42.622;23.194;2022-12-26T12:06:11;12.77;;;7.10;;
5951;SDS011;3001;42.622;23.194;2022-12-26T12:09:04;11.77;;;7.03;;
5951;SDS011;3001;42.622;23.194;2022-12-26T12:11:39;15.90;;;10.73;;
5951;SDS011;3001;42.622;23.194;2022-12-26T12:17:02;27.90;;;17.03;;
5951;SDS011;3001;42.622;23.194;2022-12-26T12:19:45;24.87;;;15.53;;
5951;SDS011;3001;42.622;23.194;2022-12-26T12:22:25;35.87;;;18.77;;
5951;SDS011;3001;42.622;23.194;2022-12-26T12:25:25;15.63;;;10.50;;
5951;SDS011;3001;42.622;23.194;2022-12-26T12:28:02;19.67;;;12.90;;
5951;SDS011;3001;42.622;23.194;2022-12-26T12:30:39;11.40;;;8.27;;
5951;SDS011;3001;42.622;23.194;2022-12-26T12:33:18;3.93;;;3.70;;
5951;SDS011;3001;42.622;23.194;2022-12-26T12:36:02;16.53;;;11.60;;
5951;SDS011;3001;42.622;23.194;2022-12-26T12:38:35;11.07;;;8.63;;
5951;SDS011;3001;42.622;23.194;2022-12-26T12:41:21;15.70;;;12.93;;
5951;SDS011;3001;42.622;23.194;2022-12-26T12:43:59;6.13;;;5.27;;
5951;SDS011;3001;42.622;23.194;2022-12-26T12:46:31;21.43;;;13.13;;
5951;SDS011;3001;42.622;23.194;2022-12-26T12:52:06;6.47;;;5.93;;
5951;SDS011;3001;42.622;23.194;2022-12-26T12:54:48;11.50;;;10.03;;
5951;SDS011;3001;42.622;23.194;2022-12-26T12:57:35;13.60;;;12.13;;
5951;SDS011;3001;42.622;23.194;2022-12-26T13:00:13;6.73;;;6.17;;
5951;SDS011;3001;42.622;23.194;2022-12-26T13:02:43;6.40;;;5.90;;
5951;SDS011;3001;42.622;23.194;2022-12-26T13:05:16;26.17;;;15.03;;
5951;SDS011;3001;42.622;23.194;2022-12-26T13:07:48;18.97;;;12.23;;
5951;SDS011;3001;42.622;23.194;2022-12-26T13:10:18;8.00;;;7.20;;
5951;SDS011;3001;42.622;23.194;2022-12-26T13:12:50;8.63;;;7.90;;
5951;SDS011;3001;42.622;23.194;2022-12-26T13:15:23;6.17;;;5.67;;
5951;SDS011;3001;42.622;23.194;2022-12-26T13:17:57;7.80;;;7.10;;
5951;SDS011;3001;42.622;23.194;2022-12-26T13:20:29;10.73;;;7.33;;
5951;SDS011;3001;42.622;23.194;2022-12-26T13:23:03;11.30;;;8.40;;
5951;SDS011;3001;42.622;23.194;2022-12-26T13:25:55;10.30;;;9.27;;
5951;SDS011;3001;42.622;23.194;2022-12-26T13:28:33;6.53;;;6.03;;
5951;SDS011;3001;42.622;23.194;2022-12-26T13:31:04;8.73;;;6.50;;
5951;SDS011;3001;42.622;23.194;2022-12-26T13:33:31;6.13;;;5.63;;
5951;SDS011;3001;42.622;23.194;2022-12-26T13:36:00;8.03;;;6.20;;
5951;SDS011;3001;42.622;23.194;2022-12-26T13:41:28;14.33;;;10.70;;
5951;SDS011;3001;42.622;23.194;2022-12-26T13:44:24;10.80;;;8.20;;
5951;SDS011;3001;42.622;23.194;2022-12-26T13:46:53;18.00;;;12.03;;
5951;SDS011;3001;42.622;23.194;2022-12-26T13:49:25;5.87;;;5.23;;
5951;SDS011;3001;42.622;23.194;2022-12-26T13:55:27;11.17;;;8.23;;
5951;SDS011;3001;42.622;23.194;2022-12-26T13:58:13;4.73;;;4.37;;
5951;SDS011;3001;42.622;23.194;2022-12-26T14:01:04;7.17;;;6.30;;
5951;SDS011;3001;42.622;23.194;2022-12-26T14:03:44;3.50;;;3.20;;
5951;SDS011;3001;42.622;23.194;2022-12-26T14:06:29;4.13;;;3.80;;
5951;SDS011;3001;42.622;23.194;2022-12-26T14:09:31;7.00;;;5.70;;
5951;SDS011;3001;42.622;23.194;2022-12-26T14:15:17;2.20;;;2.10;;
5951;SDS011;3001;42.622;23.194;2022-12-26T14:17:59;5.40;;;4.27;;
5951;SDS011;3001;42.622;23.194;2022-12-26T14:20:40;2.47;;;2.27;;
5951;SDS011;3001;42.622;23.194;2022-12-26T14:23:21;4.27;;;2.30;;
5951;SDS011;3001;42.622;23.194;2022-12-26T14:25:58;2.67;;;2.07;;
5951;SDS011;3001;42.622;23.194;2022-12-26T14:28:32;1.67;;;1.57;;
5951;SDS011;3001;42.622;23.194;2022-12-26T14:31:15;1.50;;;1.40;;
5951;SDS011;3001;42.622;23.194;2022-12-26T14:33:50;1.77;;;1.67;;
5951;SDS011;3001;42.622;23.194;2022-12-26T14:36:24;2.50;;;2.17;;
5951;SDS011;3001;42.622;23.194;2022-12-26T14:39:02;2.83;;;1.30;;
5951;SDS011;3001;42.622;23.194;2022-12-26T14:45:10;2.83;;;1.63;;
5951;SDS011;3001;42.622;23.194;2022-12-26T14:47:58;4.27;;;3.93;;
5951;SDS011;3001;42.622;23.194;2022-12-26T14:50:41;1.83;;;1.73;;
5951;SDS011;3001;42.622;23.194;2022-12-26T14:53:21;1.90;;;1.70;;
5951;SDS011;3001;42.622;23.194;2022-12-26T14:55:56;2.93;;;2.73;;
5951;SDS011;3001;42.622;23.194;2022-12-26T14:58:25;1.77;;;1.67;;
5951;SDS011;3001;42.622;23.194;2022-12-26T15:01:41;1.70;;;1.60;;
5951;SDS011;3001;42.622;23.194;2022-12-26T15:11:02;1.60;;;1.50;;
5951;SDS011;3001;42.622;23.194;2022-12-26T15:13:59;3.73;;;1.30;;
5951;SDS011;3001;42.622;23.194;2022-12-26T15:16:53;1.60;;;1.50;;
5951;SDS011;3001;42.622;23.194;2022-12-26T15:19:39;2.53;;;1.10;;
5951;SDS011;3001;42.622;23.194;2022-12-26T15:22:27;1.57;;;1.13;;
5951;SDS011;3001;42.622;23.194;2022-12-26T15:31:28;1.20;;;1.20;;
5951;SDS011;3001;42.622;23.194;2022-12-26T15:37:04;3.93;;;2.30;;
5951;SDS011;3001;42.622;23.194;2022-12-26T15:39:41;2.50;;;2.30;;
5951;SDS011;3001;42.622;23.194;2022-12-26T15:42:19;1.47;;;1.37;;
5951;SDS011;3001;42.622;23.194;2022-12-26T15:44:56;1.37;;;1.30;;
5951;SDS011;3001;42.622;23.194;2022-12-26T15:47:36;1.33;;;1.23;;
5951;SDS011;3001;42.622;23.194;2022-12-26T15:50:15;1.33;;;1.23;;
5951;SDS011;3001;42.622;23.194;2022-12-26T15:52:51;2.37;;;2.10;;
5951;SDS011;3001;42.622;23.194;2022-12-26T15:55:31;2.47;;;1.70;;
5951;SDS011;3001;42.622;23.194;2022-12-26T15:58:11;2.43;;;2.33;;
5951;SDS011;3001;42.622;23.194;2022-12-26T16:00:47;2.00;;;1.90;;
5951;SDS011;3001;42.622;23.194;2022-12-26T16:03:21;3.30;;;1.60;;
5951;SDS011;3001;42.622;23.194;2022-12-26T16:05:57;1.73;;;1.63;;
5951;SDS011;3001;42.622;23.194;2022-12-26T16:08:46;3.00;;;2.77;;
5951;SDS011;3001;42.622;23.194;2022-12-26T16:11:21;2.87;;;2.40;;
5951;SDS011;3001;42.622;23.194;2022-12-26T16:13:52;7.20;;;3.83;;
5951;SDS011;3001;42.622;23.194;2022-12-26T16:16:29;2.23;;;2.10;;
5951;SDS011;3001;42.622;23.194;2022-12-26T16:19:00;2.60;;;2.40;;
5951;SDS011;3001;42.622;23.194;2022-12-26T16:21:40;5.10;;;4.30;;
5951;SDS011;3001;42.622;23.194;2022-12-26T16:24:28;2.27;;;2.00;;
5951;SDS011;3001;42.622;23.194;2022-12-26T16:26:58;1.93;;;1.83;;
5951;SDS011;3001;42.622;23.194;2022-12-26T16:29:28;2.50;;;2.30;;